Flight Track Log - Related Links

Times and Time Zones

All times are in EDT time to prevent confusion due to time zone crossing. See the RPA3357 flight status page for this flight to view local times or setup timezone preferences in your user account.

Time Position Orientation Groundspeed Altitude Reporting Facility
EDT Latitude Longitude Course Direction KTS MPH feet Rate Location/Type
Thu 02:58:03 PM 33.6333 -84.3833 53° Northeast 148 170 2,700  Level Atlanta TRACON
Thu 02:59:03 PM 33.6333 -84.3167 90° East 215 247 4,400 2,250 Climbing Atlanta TRACON
Thu 03:00:00 PM 33.7520 -83.9745 54° Northeast  Level FlightAware Approximate
Thu 03:00:03 PM 33.6333 -84.2333 90° East 249 287 7,200  Level Atlanta TRACON
Thu 03:01:00 PM 33.8092 -83.8794 54° Northeast  Level FlightAware Approximate
Thu 03:01:49 PM 33.6481 -84.0789 83° East 291 335 11,200  Level Atlanta Center
Thu 03:02:00 PM 33.8662 -83.7841 54° Northeast  Level FlightAware Approximate
Thu 03:02:49 PM 33.7128 -83.9964 47° Northeast 301 346 13,400  Level Atlanta Center
Thu 03:03:00 PM 33.9300 -83.6953 53° Northeast  Level FlightAware Approximate
Thu 03:03:49 PM 33.7817 -83.9089 47° Northeast 330 380 15,700  Level Atlanta Center
Thu 03:04:49 PM 33.8483 -83.8236 47° Northeast 349 402 17,800 2,050 Climbing Atlanta Center
Thu 03:05:49 PM 33.9192 -83.7308 47° Northeast 359 413 19,800 1,500 Climbing Atlanta Center
Thu 03:06:49 PM 33.9794 -83.6406 51° Northeast 371 427 20,800 1,250 Climbing Atlanta Center
Thu 03:07:49 PM 34.0458 -83.5325 53° Northeast 393 452 22,300 1,450 Climbing Atlanta Center
Thu 03:08:49 PM 34.1203 -83.4189 52° Northeast 402 463 23,700 1,450 Climbing Atlanta Center
Thu 03:09:49 PM 34.1947 -83.2928 54° Northeast 418 481 25,200 1,300 Climbing Atlanta Center
Thu 03:10:49 PM 34.2631 -83.1867 52° Northeast 431 496 26,300 1,100 Climbing Atlanta Center
Thu 03:11:49 PM 34.3392 -83.0653 53° Northeast 438 504 27,400 1,000 Climbing Atlanta Center
Thu 03:12:49 PM 34.4133 -82.9433 54° Northeast 455 524 28,300 1,000 Climbing Atlanta Center
Thu 03:13:49 PM 34.4894 -82.8164 54° Northeast 460 529 29,400 1,200 Climbing Atlanta Center
Thu 03:14:49 PM 34.5756 -82.6814 52° Northeast 460 529 30,700 1,100 Climbing Atlanta Center
Thu 03:15:49 PM 34.6494 -82.5617 53° Northeast 460 529 31,600 1,000 Climbing Atlanta Center
Thu 03:16:49 PM 34.7272 -82.4339 53° Northeast 455 524 32,700 700 Climbing Atlanta Center
Thu 03:17:49 PM 34.8025 -82.3086 54° Northeast 455 524 33,000 150 Climbing Atlanta Center
Thu 03:18:49 PM 34.8781 -82.1906 52° Northeast 455 524 33,000  Level Atlanta Center
Thu 03:19:49 PM 34.9472 -82.0775 53° Northeast 455 524 33,000 100 Level Atlanta Center
Thu 03:20:49 PM 35.0203 -81.9539 54° Northeast 455 524 33,200 400 Climbing Atlanta Center
Thu 03:21:49 PM 35.1058 -81.8325 49° Northeast 455 524 33,800 400 Climbing Atlanta Center
Thu 03:22:49 PM 35.1978 -81.7283 43° Northeast 449 517 34,000 300 Climbing Atlanta Center
Thu 03:23:49 PM 35.3000 -81.6136 42° Northeast 454 522 34,400 450 Climbing Atlanta Center
Thu 03:24:49 PM 35.3958 -81.5089 42° Northeast 454 522 34,900 300 Climbing Atlanta Center
Thu 03:25:49 PM 35.4792 -81.3992 47° Northeast 442 509 35,000 50 Climbing Atlanta Center
Thu 03:26:49 PM 35.5536 -81.2717 54° Northeast 437 503 35,000  Level Atlanta Center
Thu 03:27:49 PM 35.6256 -81.1414 56° Northeast 460 529 35,000  Level Atlanta Center
Thu 03:29:47 PM 35.7753 -80.9019 52° Northeast 458 527 35,000  Level Washington Center
Thu 03:30:48 PM 35.8497 -80.7761 54° Northeast 458 527 35,000  Level Washington Center
Thu 03:31:46 PM 35.9281 -80.6481 53° Northeast 458 527 35,000  Level Washington Center
Thu 03:32:46 PM 36.0025 -80.5167 55° Northeast 465 535 35,000  Level Washington Center
Thu 03:33:47 PM 36.0786 -80.3878 54° Northeast 460 529 35,000  Level Washington Center
Thu 03:34:47 PM 36.1458 -80.2733 54° Northeast 460 529 35,000  Level Washington Center
Thu 03:35:47 PM 36.2239 -80.1417 54° Northeast 465 535 35,000  Level Washington Center
Thu 03:36:48 PM 36.3042 -80.0044 54° Northeast 458 527 35,000  Level Washington Center
Thu 03:37:48 PM 36.3392 -79.8492 74° East 448 516 35,000  Level Washington Center
Thu 03:38:46 PM 36.3592 -79.6956 81° East 453 521 35,000  Level Washington Center
Thu 03:39:46 PM 36.3847 -79.5550 77° East 453 521 35,000  Level Washington Center
Thu 03:40:47 PM 36.4272 -79.4047 71° East 453 521 35,000  Level Washington Center
Thu 03:41:47 PM 36.4714 -79.2572 70° East 453 521 35,000  Level Washington Center
Thu 03:42:48 PM 36.5200 -79.0992 69° East 458 527 35,000  Level Washington Center
Thu 03:43:48 PM 36.5783 -78.9544 63° Northeast 458 527 35,000  Level Washington Center
Thu 03:44:49 PM 36.6500 -78.8486 50° Northeast 445 512 35,000  Level Washington Center
Thu 03:45:46 PM 36.7469 -78.7361 43° Northeast 460 529 35,000  Level Washington Center
Thu 03:46:46 PM 36.8394 -78.6258 44° Northeast 460 529 35,000  Level Washington Center
Thu 03:47:47 PM 36.9339 -78.5203 42° Northeast 454 522 35,000 -246 Level Washington Center
Thu 03:48:48 PM 37.0283 -78.4147 42° Northeast 454 522 34,500 -504 Descending Washington Center
Thu 03:49:46 PM 37.1292 -78.2958 43° Northeast 454 522 34,000 -252 Descending Washington Center
Thu 03:50:47 PM 37.2189 -78.1922 43° Northeast 448 516 34,000 -49 Level Washington Center
Thu 03:51:48 PM 37.3089 -78.0881 43° Northeast 443 510 33,900 -295 Descending Washington Center
Thu 03:52:49 PM 37.3967 -77.9811 44° Northeast 443 510 33,400 -559 Descending Washington Center
Thu 03:53:46 PM 37.4903 -77.8742 42° Northeast 443 510 32,800 -610 Descending Washington Center
Thu 03:54:47 PM 37.5839 -77.7775 39° Northeast 437 503 32,200 -590 Descending Washington Center
Thu 03:55:48 PM 37.6814 -77.6883 36° Northeast 432 497 31,600 -541 Descending Washington Center
Thu 03:56:49 PM 37.7811 -77.5964 36° Northeast 432 497 31,100 -305 Descending Washington Center
Thu 03:57:46 PM 37.8806 -77.5069 35° Northeast 438 504 31,000 -51 Descending Washington Center
Thu 03:58:46 PM 37.9822 -77.4147 36° Northeast 438 504 31,000  Level Washington Center
Thu 03:59:47 PM 38.0794 -77.3275 35° Northeast 438 504 31,000  Level Washington Center
Thu 04:00:47 PM 38.1786 -77.2375 35° Northeast 438 504 31,000  Level Washington Center
Thu 04:01:48 PM 38.2822 -77.1392 37° Northeast 444 511 31,000  Level Washington Center
Thu 04:02:48 PM 38.3708 -77.0589 35° Northeast 444 511 31,000 -763 Level Washington Center
Thu 04:03:46 PM 38.4719 -76.9628 37° Northeast 444 511 29,500 -1,983 Descending Washington Center
Thu 04:04:46 PM 38.5708 -76.8689 37° Northeast 444 511 27,100 -2,331 Descending Washington Center
Thu 04:05:47 PM 38.6678 -76.7775 36° Northeast 438 504 24,800 -2,231 Descending Washington Center
Thu 04:06:47 PM 38.7231 -76.6533 60° Northeast 402 463 22,600 -2,100 Descending Washington Center
Thu 04:07:47 PM 38.7492 -76.5206 76° East 385 443 20,600 -1,785 Descending Washington Center
Thu 04:08:48 PM 38.7772 -76.3825 75° East 379 436 19,000 -1,388 Descending Washington Center
Thu 04:09:48 PM 38.8031 -76.2522 76° East 379 436 17,800 -1,525 Descending Washington Center
Thu 04:10:46 PM 38.8350 -76.1247 72° East 373 429 16,000 -1,450 Descending Washington Center
Thu 04:11:48 PM 38.8625 -76.0022 74° East 365 420 14,900 -689 Descending Washington Center
Thu 04:12:48 PM 38.8922 -75.8769 73° East 358 412 14,600 -508 Descending Washington Center
Thu 04:13:46 PM 38.9736 -75.8106 32° Northeast 339 390 13,900 -353 Descending Washington Center
Thu 04:14:47 PM 39.0633 -75.7628 22° Northeast 330 380 13,900 -197 Level Washington Center
Thu 04:15:48 PM 39.1572 -75.7200 19° North 330 380 13,500 -1,164 Descending Washington Center
Thu 04:17:32 PM 39.3000 -75.6333 25° Northeast 259 298 10,700 -1,704 Descending Philadelphia TRACON
Thu 04:18:37 PM 39.3667 -75.5833 30° Northeast 272 313 8,700 -1,850 Descending Philadelphia TRACON
Thu 04:19:32 PM 39.4167 -75.5167 46° Northeast 270 311 7,000 -887 Descending Philadelphia TRACON
Thu 04:20:32 PM 39.4667 -75.4500 46° Northeast 263 303 7,000 -454 Level Philadelphia TRACON
Thu 04:21:31 PM 39.5167 -75.3833 46° Northeast 252 290 6,100 -500 Descending Philadelphia TRACON
Thu 04:22:32 PM 39.5500 -75.3167 57° Northeast 206 237 6,000 -48 Descending Philadelphia TRACON
Thu 04:23:37 PM 39.6167 -75.3333 349° North 230 265 6,000  Level Philadelphia TRACON
Thu 04:24:37 PM 39.6833 -75.3500 349° North 190 219 6,000  Level Philadelphia TRACON
Thu 04:25:37 PM 39.7333 -75.3833 333° Northwest 198 228 6,000 -495 Level Philadelphia TRACON
Thu 04:26:26 PM 39.7333 -75.4500 270° West 206 237 5,100 -1,053 Descending Philadelphia TRACON
Thu 04:27:31 PM 39.7333 -75.5167 270° West 197 227 4,000 -571 Descending Philadelphia TRACON
Thu 04:28:32 PM 39.7667 -75.5500 322° Northwest 194 223 3,900 -496 Descending Philadelphia TRACON
Thu 04:29:32 PM 39.8167 -75.5000 38° Northeast 178 205 3,000 -900 Descending Philadelphia TRACON

Login

Don't have an account? Register now (free) for customized features, flight alerts, and more!